.
WxDataArchive / Data Records for 2012-07-23
2012-07-22 July 2012 2012-07-24

Data Records for Monday, 23 July 2012

Time	Temp	Chill	HIndex	Humid	Dewpt	 Wind 	HiWind	WindDir	Rain 	Barom 
-----	----	-----	------	-----	-----	------	------	-------	-----	----- 
00:00	79.0	79.0	81.3	69	67.9	0	0	---	0.00	30.028 
00:05	79.0	79.0	81.3	69	67.9	0	0	---	0.00	30.028 
00:10	79.0	79.0	81.3	69	67.9	0	0	---	0.00	30.028 
00:15	79.0	79.0	81.3	68	67.5	0	0	---	0.00	30.025 
00:20	78.8	78.8	81.1	69	67.7	0	0	---	0.00	30.025 
00:25	78.8	78.8	81.1	69	67.7	0	0	---	0.00	30.025 
00:30	78.6	78.6	80.8	69	67.6	0	0	---	0.00	30.028 
00:35	78.6	78.6	80.8	69	67.6	0	0	---	0.00	30.028 
00:40	78.5	78.5	80.7	70	67.9	0	0	---	0.00	30.028 
00:45	78.3	78.3	80.4	70	67.7	0	0	---	0.00	30.029 
00:50	78.1	78.1	80.2	70	67.5	0	0	---	0.00	30.029 
00:55	77.9	77.9	79.9	70	67.3	0	0	---	0.00	30.029 
01:00	77.9	77.9	79.9	70	67.3	0	0	---	0.00	30.030 
01:05	77.9	77.9	79.9	71	67.7	0	0	---	0.00	30.030 
01:10	77.7	77.7	79.7	71	67.5	0	0	---	0.00	30.030 
01:15	77.7	77.7	79.7	71	67.5	0	0	---	0.00	30.031 
01:20	77.7	77.7	79.6	70	67.1	0	0	---	0.00	30.031 
01:25	77.7	77.7	79.6	70	67.1	0	0	---	0.00	30.031 
01:30	77.7	77.7	79.6	70	67.1	0	0	---	0.00	30.030 
01:35	77.7	77.7	79.6	69	66.7	0	0	---	0.00	30.030 
01:40	77.7	77.7	79.6	69	66.7	0	0	---	0.00	30.030 
01:45	77.7	77.7	79.6	69	66.7	0	0	---	0.00	30.027 
01:50	77.6	77.6	79.5	69	66.6	0	0	---	0.00	30.027 
01:55	77.6	77.6	79.5	69	66.6	0	0	---	0.00	30.027 
02:00	77.6	77.6	79.5	69	66.6	0	0	---	0.00	30.026 
02:05	77.6	77.6	79.5	69	66.6	0	0	---	0.00	30.026 
02:10	77.6	77.6	79.5	70	67.0	0	0	---	0.00	30.026 
02:15	77.6	77.6	79.5	70	67.0	0	0	---	0.00	30.023 
02:20	77.6	77.6	79.5	70	67.0	0	0	---	0.00	30.023 
02:25	77.6	77.6	79.5	69	66.6	0	0	---	0.00	30.023 
02:30	77.7	77.7	79.6	70	67.1	0	1	270	0.00	30.022 
02:35	77.7	77.7	79.7	71	67.5	0	0	---	0.00	30.022 
02:40	77.6	77.6	79.5	72	67.8	0	0	---	0.00	30.022 
02:45	77.4	77.4	79.3	72	67.6	0	1	270	0.00	30.009 
02:50	77.4	77.4	79.3	72	67.6	0	1	270	0.00	30.009 
02:55	77.2	77.2	79.0	73	67.9	0	0	---	0.00	30.009 
03:00	77.0	77.0	78.7	74	68.1	0	0	---	0.00	30.005 
03:05	76.8	76.8	78.4	75	68.3	0	0	---	0.00	30.005 
03:10	76.7	76.7	78.3	75	68.2	0	0	---	0.00	30.005 
03:15	76.7	76.7	78.3	75	68.2	0	1	270	0.00	30.001 
03:20	76.5	76.5	78.0	75	68.0	0	1	270	0.00	30.001 
03:25	76.5	76.5	78.1	74	67.6	0	1	270	0.00	30.001 
03:30	76.5	76.5	78.1	73	67.2	0	1	270	0.00	29.999 
03:35	76.7	76.7	78.4	72	67.0	0	1	270	0.00	29.999 
03:40	76.7	76.7	78.4	71	66.6	0	1	270	0.00	29.999 
03:45	76.8	76.8	78.5	70	66.3	0	1	270	0.00	29.997 
03:50	77.0	77.0	78.8	68	65.6	0	1	270	0.00	29.997 
03:55	77.2	77.2	79.0	67	65.4	0	1	270	0.00	29.997 
04:00	77.6	77.6	79.4	66	65.3	0	1	270	0.00	29.996 
04:05	77.6	77.6	79.4	65	64.9	0	2	270	0.00	29.996 
04:10	77.7	77.7	79.5	65	65.0	0	1	270	0.00	29.996 
04:15	77.7	77.7	79.5	64	64.5	0	1	270	0.00	29.997 
04:20	77.7	77.7	79.5	63	64.1	0	1	270	0.00	29.997 
04:25	77.9	77.9	79.7	63	64.3	0	1	270	0.00	29.997 
04:30	77.7	77.7	79.5	63	64.1	0	2	270	0.00	29.993 
04:35	77.7	77.7	79.4	62	63.6	0	1	270	0.00	29.993 
04:40	77.9	77.9	79.6	62	63.8	0	2	270	0.00	29.993 
04:45	78.1	78.1	79.8	61	63.5	0	2	270	0.00	29.993 
04:50	78.1	78.1	79.8	61	63.5	0	1	270	0.00	29.993 
04:55	78.1	78.1	79.8	61	63.5	0	1	270	0.00	29.993 
05:00	77.9	77.9	79.6	61	63.3	0	1	270	0.00	29.989 
05:05	77.9	77.9	79.6	61	63.3	0	2	270	0.00	29.989 
05:10	77.9	77.9	79.6	61	63.3	0	1	270	0.00	29.989 
05:15	77.9	77.9	79.6	61	63.3	0	1	270	0.00	29.986 
05:20	77.7	77.7	79.4	61	63.2	0	2	270	0.00	29.986 
05:25	77.9	77.9	79.6	60	62.9	0	2	270	0.00	29.986 
05:30	78.1	78.1	79.7	59	62.6	0	2	270	0.00	29.981 
05:35	78.1	78.1	79.7	59	62.6	0	3	270	0.00	29.981 
05:40	78.1	78.1	79.7	58	62.1	0	2	270	0.00	29.981 
05:45	78.1	78.1	79.7	58	62.1	0	2	270	0.00	29.984 
05:50	78.1	78.1	79.7	58	62.1	0	2	270	0.00	29.984 
05:55	78.3	78.3	79.8	57	61.8	0	3	270	0.00	29.984 
06:00	78.5	78.5	80.0	57	62.0	0	2	270	0.00	29.988 
06:05	78.5	78.5	80.0	57	62.0	0	3	270	0.00	29.988 
06:10	78.5	78.5	80.0	57	62.0	0	1	270	0.00	29.988 
06:15	78.3	78.3	79.8	57	61.8	0	1	270	0.00	29.994 
06:20	78.3	78.3	79.8	57	61.8	0	1	270	0.00	29.994 
06:25	78.3	78.3	79.9	59	62.8	1	3	270	0.00	29.994 
06:30	77.9	77.9	79.5	59	62.4	1	2	270	0.00	30.001 
06:35	77.7	77.7	79.4	59	62.2	0	2	270	0.00	30.001 
06:40	77.6	77.6	79.3	60	62.6	0	2	292	0.00	30.001 
06:45	77.4	77.4	79.1	60	62.4	0	1	292	0.00	30.005 
06:50	77.6	77.6	79.2	58	61.6	1	4	292	0.00	30.005 
06:55	77.7	77.7	79.3	58	61.7	0	2	292	0.00	30.005 
07:00	77.9	77.9	79.5	58	61.9	0	2	292	0.00	30.013 
07:05	77.9	77.9	79.5	58	61.9	1	2	292	0.00	30.013 
07:10	77.7	77.7	79.4	61	63.2	0	1	292	0.00	30.013 
07:15	77.4	77.4	79.1	61	62.9	0	1	292	0.00	30.016 
07:20	77.0	77.0	78.8	64	63.9	0	0	---	0.00	30.016 
07:25	76.7	76.7	78.5	65	64.0	0	1	292	0.00	30.016 
07:30	76.1	76.1	77.9	67	64.3	0	1	292	0.00	30.013 
07:35	75.8	75.8	77.5	69	64.9	0	1	292	0.01	30.013 
07:40	75.3	75.3	77.0	69	64.4	0	1	292	0.00	30.013 
07:45	74.9	74.9	74.9	71	64.8	0	0	---	0.00	30.016 
07:50	74.6	74.6	74.6	73	65.4	0	0	---	0.00	30.016 
07:55	74.6	74.6	74.6	73	65.4	0	0	---	0.00	30.016 
08:00	74.4	74.4	74.4	74	65.6	0	0	---	0.00	30.018 
08:05	74.2	74.2	74.2	75	65.8	0	0	---	0.00	30.018 
08:10	74.0	74.0	74.0	77	66.3	0	0	---	0.00	30.018 
08:15	73.9	73.9	73.9	77	66.2	0	0	---	0.00	30.010 
08:20	73.5	73.5	73.5	78	66.2	0	1	292	0.00	30.010 
08:25	73.5	73.5	73.5	78	66.2	0	1	292	0.00	30.010 
08:30	73.5	73.5	73.5	78	66.2	0	0	---	0.00	30.017 
08:35	73.5	73.5	73.5	78	66.2	0	1	292	0.01	30.017 
08:40	73.7	73.7	73.7	78	66.4	0	1	292	0.00	30.017 
08:45	73.7	73.7	73.7	77	66.0	0	1	292	0.00	30.015 
08:50	73.9	73.9	73.9	76	65.8	0	0	---	0.00	30.015 
08:55	73.9	73.9	73.9	75	65.5	0	1	292	0.00	30.015 
09:00	74.0	74.0	74.0	72	64.4	0	1	292	0.00	30.026 
09:05	74.4	74.4	74.4	70	64.0	0	1	292	0.00	30.026 
09:10	74.6	74.6	74.6	72	65.0	0	0	---	0.00	30.026 
09:15	74.6	74.6	74.6	74	65.7	0	0	---	0.01	30.029 
09:20	74.0	74.0	74.0	75	65.6	0	1	292	0.01	30.029 
09:25	73.5	73.5	73.5	77	65.8	0	0	---	0.00	30.029 
09:30	73.2	73.2	73.2	79	66.3	0	0	---	0.00	30.039 
09:35	72.7	72.7	72.7	80	66.2	0	1	292	0.00	30.039 
09:40	72.5	72.5	72.5	80	66.0	0	2	292	0.01	30.039 
09:45	72.3	72.3	72.3	81	66.1	0	1	292	0.01	30.046 
09:50	72.0	72.0	72.0	82	66.2	0	1	292	0.01	30.046 
09:55	71.8	71.8	71.8	84	66.7	0	1	292	0.00	30.046 
10:00	71.5	71.5	71.5	85	66.7	0	0	---	0.01	30.043 
10:05	71.3	71.3	71.3	87	67.2	0	0	---	0.01	30.043 
10:10	71.1	71.1	71.1	88	67.4	0	0	---	0.00	30.043 
10:15	70.9	70.9	70.9	88	67.2	0	0	---	0.00	30.053 
10:20	71.1	71.1	71.1	89	67.7	0	1	292	0.02	30.053 
10:25	70.9	70.9	70.9	90	67.8	0	0	---	0.02	30.053 
10:30	70.9	70.9	70.9	90	67.8	0	1	292	0.00	30.039 
10:35	70.8	70.8	70.8	91	68.0	0	1	292	0.05	30.039 
10:40	70.8	70.8	70.8	91	68.0	0	1	292	0.06	30.039 
10:45	70.4	70.4	70.4	91	67.6	0	1	292	0.05	30.024 
10:50	70.1	70.1	70.1	91	67.3	0	2	292	0.04	30.024 
10:55	70.1	70.1	70.1	92	67.7	1	3	292	0.01	30.024 
11:00	70.1	70.1	70.1	92	67.7	0	2	292	0.00	30.013 
11:05	70.1	70.1	70.1	92	67.7	0	1	292	0.00	30.013 
11:10	70.1	70.1	70.1	92	67.7	1	5	292	0.00	30.013 
11:15	70.3	70.3	70.3	92	67.9	1	2	112	0.01	29.997 
11:20	70.4	70.4	70.4	92	68.0	0	1	112	0.00	29.997 
11:25	70.6	70.6	70.6	92	68.2	1	3	112	0.00	29.997 
11:30	70.4	70.4	70.4	91	67.6	1	4	112	0.00	29.987 
11:35	70.6	70.6	70.6	91	67.8	2	6	90	0.00	29.987 
11:40	71.1	71.1	71.1	91	68.3	1	2	90	0.00	29.987 
11:45	71.8	71.8	71.8	91	69.0	0	2	90	0.00	29.976 
11:50	72.3	72.3	72.3	91	69.5	1	4	90	0.00	29.976 
11:55	73.5	73.5	73.5	92	71.0	1	3	292	0.00	29.976 
12:00	74.6	74.6	74.6	90	71.5	1	3	270	0.00	29.958 
12:05	75.4	75.4	75.0	89	71.9	1	3	248	0.00	29.958 
12:10	75.8	75.8	76.2	85	71.0	2	6	248	0.00	29.958 
12:15	76.3	76.3	77.2	83	70.7	2	4	292	0.00	29.955 
12:20	77.0	77.0	78.6	80	70.3	2	5	270	0.00	29.955 
12:25	77.9	77.9	80.1	79	70.8	1	4	292	0.00	29.955 
12:30	78.5	78.5	81.0	76	70.3	2	6	270	0.00	29.945 
12:35	79.2	79.2	82.1	74	70.2	2	5	270	0.00	29.945 
12:40	79.8	79.8	82.9	72	69.9	1	3	292	0.00	29.945 
12:45	80.5	80.5	83.8	70	69.8	1	4	270	0.00	29.944 
12:50	80.9	80.9	84.3	69	69.8	2	7	248	0.00	29.944 
12:55	81.4	81.4	85.1	69	70.2	2	5	270	0.00	29.944 
13:00	82.0	82.0	85.4	65	69.0	2	5	248	0.00	29.943 
13:05	82.6	82.6	86.2	64	69.2	2	5	270	0.00	29.943 
13:10	83.4	83.4	87.6	64	69.9	2	4	248	0.00	29.943 
13:15	84.0	84.0	88.6	64	70.5	2	4	248	0.00	29.936 
13:20	84.5	84.5	88.7	61	69.5	2	5	270	0.00	29.936 
13:25	85.1	85.1	89.1	59	69.1	2	5	292	0.00	29.936 
13:30	85.7	85.7	89.5	57	68.7	2	5	292	0.00	29.936 
13:35	85.7	85.7	89.5	57	68.7	3	7	248	0.00	29.936 
13:40	86.1	86.1	89.9	56	68.5	3	7	248	0.00	29.936 
13:45	86.1	86.1	90.2	57	69.1	3	6	270	0.00	29.932 
13:50	86.5	86.5	91.0	57	69.4	2	5	270	0.00	29.932 
13:55	87.2	87.2	92.3	57	70.1	2	5	292	0.00	29.932 
14:00	87.8	87.8	93.0	56	70.1	2	5	292	0.00	29.927 
14:05	88.2	88.2	92.9	54	69.4	3	6	292	0.00	29.927 
14:10	88.6	88.6	93.7	54	69.8	2	6	292	0.00	29.927 
14:15	88.8	88.8	94.1	54	70.0	2	5	248	0.00	29.918 
14:20	88.8	88.8	93.7	53	69.4	3	7	270	0.00	29.918 
14:25	88.8	88.8	94.5	55	70.5	3	10	270	0.00	29.918 
14:30	88.8	88.8	94.1	54	70.0	3	10	248	0.00	29.915 
14:35	89.3	89.3	95.1	54	70.4	2	5	270	0.00	29.915 
14:40	89.3	89.3	95.1	54	70.4	2	6	248	0.00	29.915 
14:45	89.7	89.7	95.9	54	70.8	2	7	248	0.00	29.913 
14:50	90.1	90.1	96.7	54	71.2	1	3	248	0.00	29.913 
14:55	90.5	90.5	97.5	54	71.5	2	7	270	0.00	29.913 
15:00	90.7	90.7	98.0	54	71.7	1	6	270	0.00	29.909 
15:05	91.2	91.2	97.4	51	70.5	2	7	270	0.00	29.909 
15:10	91.4	91.4	98.9	53	71.8	2	5	292	0.00	29.909 
15:15	91.6	91.6	99.4	53	72.0	2	5	270	0.00	29.900 
15:20	91.8	91.8	98.1	50	70.5	2	4	248	0.00	29.900 
15:25	91.6	91.6	98.3	51	70.9	3	9	248	0.00	29.900 
15:30	91.8	91.8	98.7	51	71.0	3	5	248	0.00	29.898 
15:35	92.1	92.1	99.9	52	71.9	3	7	270	0.00	29.898 
15:40	92.3	92.3	99.7	51	71.5	2	4	248	0.00	29.898 
15:45	92.9	92.9	101.1	51	72.1	1	4	248	0.00	29.891 
15:50	93.4	93.4	102.2	51	72.5	2	4	248	0.00	29.891 
15:55	93.8	93.8	101.8	49	71.7	1	4	248	0.00	29.891 
16:00	93.8	93.8	101.8	49	71.7	2	7	248	0.00	29.881 
16:05	94.0	94.0	101.6	48	71.3	2	5	270	0.00	29.881 
16:10	94.0	94.0	99.3	44	68.7	3	6	270	0.00	29.881 
16:15	94.0	94.0	98.7	43	68.0	3	7	270	0.00	29.876 
16:20	94.5	94.5	100.3	44	69.2	3	7	270	0.00	29.876 
16:25	94.7	94.7	99.5	42	68.0	4	8	270	0.00	29.876 
16:30	94.5	94.5	100.3	44	69.2	3	6	270	0.00	29.870 
16:35	94.3	94.3	99.3	43	68.3	3	6	270	0.00	29.870 
16:40	94.3	94.3	99.9	44	69.0	3	7	270	0.00	29.870 
16:45	94.5	94.5	99.7	43	68.5	2	7	270	0.00	29.865 
16:50	94.5	94.5	99.1	42	67.8	3	10	270	0.00	29.865 
16:55	94.5	94.5	99.1	42	67.8	3	6	270	0.00	29.865 
17:00	94.3	94.3	99.3	43	68.3	2	4	270	0.00	29.862 
17:05	94.3	94.3	98.2	41	66.9	3	6	315	0.00	29.862 
17:10	94.7	94.7	98.4	40	66.6	3	6	270	0.00	29.862 
17:15	94.9	94.9	99.3	41	67.5	3	5	270	0.00	29.858 
17:20	94.9	94.9	99.9	42	68.2	4	6	270	0.00	29.858 
17:25	94.7	94.7	99.5	42	68.0	4	9	270	0.00	29.858 
17:30	94.5	94.5	99.7	43	68.5	4	10	270	0.00	29.861 
17:35	94.0	94.0	99.3	44	68.7	3	6	270	0.00	29.861 
17:40	93.8	93.8	98.3	43	67.9	3	6	270	0.00	29.861 
17:45	93.6	93.6	98.0	43	67.7	3	7	270	0.00	29.858 
17:50	93.4	93.4	98.1	44	68.2	3	7	270	0.00	29.858 
17:55	93.8	93.8	98.3	43	67.9	3	7	270	0.00	29.858 
18:00	93.8	93.8	97.3	41	66.5	3	10	270	0.00	29.853 
18:05	93.8	93.8	97.3	41	66.5	2	6	248	0.00	29.853 
18:10	93.6	93.6	97.0	41	66.3	4	9	270	0.00	29.853 
18:15	93.4	93.4	97.1	42	66.8	4	6	270	0.00	29.852 
18:20	93.4	93.4	97.1	42	66.8	3	7	270	0.00	29.852 
18:25	93.2	93.2	96.7	42	66.6	2	6	248	0.00	29.852 
18:30	93.2	93.2	97.7	44	68.0	3	6	270	0.00	29.853 
18:35	93.2	93.2	97.2	43	67.3	3	6	292	0.00	29.853 
18:40	92.9	92.9	97.2	44	67.7	3	5	270	0.00	29.853 
18:45	92.7	92.7	97.3	45	68.2	4	11	270	0.00	29.851 
18:50	92.5	92.5	97.4	46	68.7	3	6	270	0.00	29.851 
18:55	92.7	92.7	97.8	46	68.8	2	6	270	0.00	29.851 
19:00	92.7	92.7	97.3	45	68.2	3	7	270	0.00	29.851 
19:05	92.5	92.5	96.9	45	68.0	3	5	270	0.00	29.851 
19:10	92.5	92.5	97.4	46	68.7	2	5	270	0.00	29.851 
19:15	92.5	92.5	96.4	44	67.4	3	9	270	0.00	29.850 
19:20	92.5	92.5	96.4	44	67.4	3	7	270	0.00	29.850 
19:25	92.5	92.5	96.9	45	68.0	2	5	292	0.00	29.850 
19:30	92.5	92.5	96.9	45	68.0	2	5	292	0.00	29.847 
19:35	92.3	92.3	97.0	46	68.5	2	5	248	0.00	29.847 
19:40	92.3	92.3	96.5	45	67.8	3	7	270	0.00	29.847 
19:45	92.1	92.1	96.7	46	68.3	2	4	292	0.00	29.843 
19:50	91.8	91.8	96.1	46	68.0	2	7	292	0.00	29.843 
19:55	91.8	91.8	95.6	45	67.4	3	6	270	0.00	29.843 
20:00	91.6	91.6	95.3	45	67.2	2	5	270	0.00	29.843 
20:05	91.4	91.4	95.4	46	67.7	3	6	270	0.00	29.843 
20:10	91.2	91.2	95.0	46	67.5	1	4	270	0.00	29.843 
20:15	91.0	91.0	95.1	47	67.9	1	2	270	0.00	29.848 
20:20	90.7	90.7	94.1	46	67.0	3	6	270	0.00	29.848 
20:25	90.5	90.5	94.2	47	67.5	2	3	225	0.00	29.848 
20:30	90.3	90.3	93.8	47	67.3	2	5	270	0.00	29.847 
20:35	90.3	90.3	93.4	46	66.7	2	4	270	0.00	29.847 
20:40	90.1	90.1	93.5	47	67.1	2	5	270	0.00	29.847 
20:45	89.9	89.9	93.1	47	66.9	2	5	292	0.00	29.850 
20:50	89.7	89.7	93.2	48	67.4	1	2	292	0.00	29.850 
20:55	89.3	89.3	92.9	49	67.6	1	3	292	0.00	29.850 
21:00	89.0	89.0	92.8	50	67.9	2	4	292	0.00	29.853 
21:05	88.8	88.8	92.4	50	67.7	2	6	270	0.00	29.853 
21:10	88.6	88.6	91.7	49	67.0	2	5	270	0.00	29.853 
21:15	88.6	88.6	91.7	49	67.0	2	4	270	0.00	29.857 
21:20	88.4	88.4	91.7	50	67.4	2	3	270	0.00	29.857 
21:25	88.2	88.2	91.4	50	67.2	1	3	270	0.00	29.857 
21:30	88.0	88.0	91.4	51	67.6	1	2	270	0.00	29.856 
21:35	87.6	87.6	91.1	52	67.8	0	2	270	0.00	29.856 
21:40	87.2	87.2	90.8	53	67.9	1	3	270	0.00	29.856 
21:45	87.0	87.0	90.4	53	67.8	1	3	270	0.00	29.860 
21:50	86.7	86.7	89.9	53	67.5	1	4	270	0.00	29.860 
21:55	86.7	86.7	90.3	54	68.0	1	2	270	0.00	29.860 
22:00	86.3	86.3	89.6	54	67.7	1	3	270	0.00	29.862 
22:05	86.1	86.1	89.2	54	67.5	1	2	270	0.00	29.862 
22:10	85.9	85.9	88.9	54	67.3	1	3	270	0.00	29.862 
22:15	85.9	85.9	89.2	55	67.8	1	3	270	0.00	29.871 
22:20	85.7	85.7	88.9	55	67.6	1	3	270	0.00	29.871 
22:25	85.3	85.3	88.2	55	67.3	0	2	270	0.00	29.871 
22:30	85.1	85.1	88.2	56	67.6	0	2	270	0.00	29.877 
22:35	84.9	84.9	88.2	57	67.9	1	4	270	0.00	29.877 
22:40	84.7	84.7	87.9	57	67.7	1	2	270	0.00	29.877 
22:45	84.5	84.5	87.5	57	67.6	1	3	270	0.00	29.874 
22:50	84.3	84.3	87.2	57	67.4	1	2	270	0.00	29.874 
22:55	84.1	84.1	87.2	58	67.7	1	2	270	0.00	29.874 
23:00	84.1	84.1	87.2	58	67.7	1	3	270	0.00	29.870 
23:05	84.0	84.0	87.0	58	67.6	0	2	270	0.00	29.870 
23:10	83.8	83.8	86.7	58	67.4	0	3	270	0.00	29.870 
23:15	83.8	83.8	86.7	58	67.4	1	3	270	0.00	29.864 
23:20	83.8	83.8	86.7	58	67.4	0	2	270	0.00	29.864 
23:25	84.0	84.0	87.0	58	67.6	1	3	270	0.00	29.864 
23:30	84.0	84.0	87.0	58	67.6	1	4	338	0.00	29.866 
23:35	84.0	84.0	87.0	58	67.6	1	3	338	0.00	29.866 
23:40	84.0	84.0	87.0	58	67.6	1	2	338	0.00	29.866 
23:45	84.0	84.0	87.0	58	67.6	1	4	338	0.00	29.870 
23:50	84.0	84.0	86.7	57	67.1	1	4	270	0.00	29.870 
23:55	84.0	84.0	86.7	57	67.1	1	2	270	0.00	29.870 

CoCoRaHS
IN-AL-39
A2 Web Hosting
Creative Commons License
GoDaddy
search engine by freefind advanced

loaded 2018-11-13 21:34:58 • last modified 2010-11-18 10:43:29
Privacy PolicyDisclaimer
• wx.awcolley.com is powered by PmWiki v.2002016 •
• all content (unless otherwise noted) © 2018 A W Colley